Time;durP1;ratioP1;P1;durP2;ratioP2;P2;SDS_P1;SDS_P2;PMS_P1;PMS_P2;Temp;Humidity;BMP_temperature;BMP_pressure;BME280_temperature;BME280_humidity;BME280_pressure;Samples;Min_cycle;Max_cycle;Signal;HPM_P1;HPM_P2
2022/04/25 00:06:57;;;;;;;18.60;3.45;;;15.40;99.90;;;;;;5373451;23;20491;-88
2022/04/25 00:09:24;;;;;;;24.33;4.10;;;15.30;99.90;;;;;;4900882;29;20119;-87
2022/04/25 00:11:50;;;;;;;15.50;4.40;;;15.40;99.90;;;;;;4880543;29;20112;-87
2022/04/25 00:14:17;;;;;;;14.52;3.92;;;15.40;99.90;;;;;;4900811;29;20402;-88
2022/04/25 00:16:43;;;;;;;14.80;3.38;;;15.40;99.90;;;;;;4881636;29;20029;-88
2022/04/25 00:19:09;;;;;;;16.15;3.95;;;15.40;99.90;;;;;;4866456;29;20506;-89
2022/04/25 00:21:36;;;;;;;10.40;3.55;;;15.30;99.90;;;;;;4865462;29;20025;-88
2022/04/25 00:24:03;;;;;;;11.57;3.42;;;15.30;99.90;;;;;;4866493;29;20447;-88
2022/04/25 00:26:29;;;;;;;18.42;3.53;;;15.20;99.90;;;;;;4866190;29;20021;-88
2022/04/25 00:28:56;;;;;;;16.33;3.60;;;15.20;99.90;;;;;;4866477;29;20033;-87
2022/04/25 00:31:22;;;;;;;11.55;3.83;;;15.10;99.90;;;;;;4866180;29;20025;-88
2022/04/25 00:33:49;;;;;;;12.50;3.35;;;15.10;99.90;;;;;;4866213;29;20029;-90
2022/04/25 00:36:15;;;;;;;10.65;3.00;;;15.20;99.90;;;;;;4865971;29;20033;-88
2022/04/25 00:38:42;;;;;;;8.45;2.78;;;15.20;99.90;;;;;;4866093;29;20037;-88
2022/04/25 00:41:09;;;;;;;9.93;2.85;;;15.10;99.90;;;;;;4866208;29;20395;-89
2022/04/25 00:43:35;;;;;;;11.10;3.33;;;15.10;99.90;;;;;;4897091;29;20041;-88
2022/04/25 00:46:03;;;;;;;16.70;3.05;;;15.00;99.90;;;;;;4865999;29;20112;-88
2022/04/25 00:48:30;;;;;;;17.05;2.60;;;15.00;99.90;;;;;;4865961;29;20036;-88
2022/04/25 00:50:56;;;;;;;11.85;2.03;;;15.00;99.90;;;;;;4865916;29;20032;-88
2022/04/25 00:53:23;;;;;;;8.20;2.42;;;14.90;99.90;;;;;;4897141;29;20037;-88
2022/04/25 00:55:50;;;;;;;10.85;2.88;;;14.90;99.90;;;;;;4865982;29;20032;-89
2022/04/25 00:58:17;;;;;;;10.45;2.78;;;14.90;99.90;;;;;;4865821;29;20044;-88
2022/04/25 01:00:44;;;;;;;12.77;3.25;;;14.90;99.90;;;;;;4865719;29;20487;-88
2022/04/25 01:03:13;;;;;;;14.68;2.80;;;14.80;99.90;;;;;;4865451;29;20045;-88
2022/04/25 01:05:39;;;;;;;8.75;2.42;;;14.80;99.90;;;;;;4865813;29;20539;-88
2022/04/25 01:08:08;;;;;;;9.73;2.85;;;14.80;99.90;;;;;;4850233;29;20048;-89
2022/04/25 01:10:34;;;;;;;6.88;2.45;;;14.70;99.90;;;;;;4880954;29;20076;-89
2022/04/25 01:13:03;;;;;;;12.25;2.60;;;14.60;99.90;;;;;;4850260;29;20044;-88
2022/04/25 01:15:31;;;;;;;13.63;2.50;;;14.50;99.90;;;;;;4880998;29;20116;-89
2022/04/25 01:17:57;;;;;;;10.88;2.45;;;14.40;99.90;;;;;;4881027;29;20112;-88
2022/04/25 01:20:24;;;;;;;10.88;2.40;;;14.30;99.90;;;;;;4881067;29;20052;-88
2022/04/25 01:22:50;;;;;;;15.00;2.70;;;14.30;99.90;;;;;;4850019;29;20025;-88
2022/04/25 01:28:03;;;;;;;12.73;2.70;;;14.10;99.90;;;;;;4865286;29;20033;-87
2022/04/25 01:30:31;;;;;;;13.82;2.60;;;14.10;99.90;;;;;;4880612;29;20037;-87
2022/04/25 01:33:00;;;;;;;14.20;2.72;;;14.00;99.90;;;;;;4864899;29;20091;-87
2022/04/25 01:35:26;;;;;;;10.32;2.28;;;13.90;99.90;;;;;;4880770;29;20100;-89
2022/04/25 01:37:56;;;;;;;9.73;2.55;;;13.80;99.90;;;;;;4849856;29;20082;-87
2022/04/25 01:40:24;;;;;;;7.13;2.22;;;13.90;99.90;;;;;;4865183;29;20060;-87
2022/04/25 01:42:50;;;;;;;11.65;2.40;;;13.90;99.90;;;;;;4849780;29;20098;-87
2022/04/25 01:45:17;;;;;;;8.00;2.30;;;13.90;99.90;;;;;;4864948;29;20100;-88
2022/04/25 01:47:46;;;;;;;13.25;2.60;;;13.90;99.90;;;;;;4849602;29;20033;-87
2022/04/25 01:50:12;;;;;;;8.77;2.28;;;13.80;99.90;;;;;;4880363;29;20053;-88
2022/04/25 01:52:39;;;;;;;12.43;2.30;;;13.80;99.90;;;;;;4849472;29;20037;-89
2022/04/25 01:55:05;;;;;;;9.63;2.42;;;13.90;99.90;;;;;;4880348;29;20033;-88
2022/04/25 01:57:33;;;;;;;9.65;2.33;;;13.80;99.90;;;;;;4849415;29;20025;-89
2022/04/25 02:00:00;;;;;;;12.50;2.35;;;13.70;99.90;;;;;;4880197;29;20037;-88
2022/04/25 02:02:27;;;;;;;10.15;2.38;;;13.60;99.90;;;;;;4849801;29;20081;-88
2022/04/25 02:04:53;;;;;;;7.88;2.35;;;13.50;99.90;;;;;;4880032;29;20128;-87
2022/04/25 02:07:20;;;;;;;7.55;2.38;;;13.40;99.90;;;;;;4858754;29;20143;-88
2022/04/25 02:09:47;;;;;;;12.18;3.08;;;13.40;99.90;;;;;;4864703;29;20032;-88
2022/04/25 02:12:16;;;;;;;9.90;2.22;;;13.40;99.90;;;;;;4864257;29;20041;-88
2022/04/25 02:14:44;;;;;;;13.70;2.50;;;13.40;99.90;;;;;;4864490;29;20033;-88
2022/04/25 02:17:13;;;;;;;9.18;2.28;;;13.40;99.90;;;;;;4864336;29;20479;-88
2022/04/25 02:19:43;;;;;;;7.05;2.63;;;13.20;99.90;;;;;;4864532;29;20088;-88
2022/04/25 02:22:11;;;;;;;12.10;2.53;;;13.30;99.90;;;;;;4864558;29;20029;-88
2022/04/25 02:24:39;;;;;;;11.93;2.90;;;13.30;99.90;;;;;;4864226;29;20036;-88
2022/04/25 02:27:07;;;;;;;12.90;2.63;;;13.30;99.90;;;;;;4864344;29;20451;-88
2022/04/25 02:29:35;;;;;;;11.20;2.97;;;13.20;99.90;;;;;;4864192;29;20021;-87
2022/04/25 02:32:03;;;;;;;8.35;2.03;;;13.30;99.90;;;;;;4863946;29;20045;-89
2022/04/25 02:34:34;;;;;;;13.80;2.45;;;13.20;99.90;;;;;;4864127;29;20029;-87
2022/04/25 02:37:00;;;;;;;9.65;2.55;;;13.20;99.90;;;;;;4864049;29;20033;-87
2022/04/25 02:39:27;;;;;;;12.45;2.05;;;13.10;99.90;;;;;;4864152;29;20108;-88
2022/04/25 02:41:53;;;;;;;10.88;1.80;;;13.10;99.90;;;;;;4864337;29;20069;-88
2022/04/25 02:44:20;;;;;;;10.60;1.90;;;13.00;99.90;;;;;;4863498;29;20120;-87
2022/04/25 02:46:49;;;;;;;8.18;2.05;;;12.90;99.90;;;;;;4864012;29;20487;-87
2022/04/25 02:49:16;;;;;;;9.48;2.20;;;12.80;99.90;;;;;;4864079;29;20033;-88
2022/04/25 02:51:45;;;;;;;16.48;2.55;;;12.60;99.90;;;;;;4863723;29;20112;-87
2022/04/25 02:54:12;;;;;;;8.80;2.30;;;12.70;99.90;;;;;;4864163;29;20061;-88
2022/04/25 02:56:42;;;;;;;8.55;2.00;;;12.70;99.90;;;;;;4863901;29;20029;-88
2022/04/25 02:59:08;;;;;;;9.15;1.75;;;12.70;99.90;;;;;;4863714;29;20033;-87
2022/04/25 03:01:35;;;;;;;10.82;2.40;;;12.80;99.90;;;;;;4864118;29;20100;-88
2022/04/25 03:04:01;;;;;;;13.55;2.20;;;12.90;99.90;;;;;;4863924;29;20060;-87
2022/04/25 03:06:28;;;;;;;12.20;2.65;;;13.00;99.90;;;;;;4869702;29;20050;-89
2022/04/25 03:08:54;;;;;;;10.30;2.30;;;12.90;99.90;;;;;;4866909;29;20032;-88
2022/04/25 03:11:20;;;;;;;15.20;2.38;;;13.00;99.90;;;;;;4866875;29;20040;-88
2022/04/25 03:13:48;;;;;;;8.18;2.05;;;12.90;99.90;;;;;;4867010;29;20029;-88
2022/04/25 03:16:16;;;;;;;8.55;2.17;;;12.80;99.90;;;;;;4882636;29;20566;-88
2022/04/25 03:18:43;;;;;;;8.93;2.25;;;12.70;99.90;;;;;;4882313;29;20025;-87
2022/04/25 03:21:10;;;;;;;10.30;2.20;;;12.60;99.90;;;;;;4882479;29;20028;-89
2022/04/25 03:23:36;;;;;;;8.75;2.10;;;12.60;99.90;;;;;;4882435;29;20120;-89
2022/04/25 03:26:04;;;;;;;14.70;2.53;;;12.50;99.90;;;;;;4866862;29;20513;-88
2022/04/25 03:28:32;;;;;;;10.98;1.95;;;12.40;99.90;;;;;;4882152;29;20020;-88
2022/04/25 03:30:58;;;;;;;8.68;1.90;;;12.20;99.90;;;;;;4897626;29;20035;-87
2022/04/25 03:33:31;;;;;;;11.75;1.85;;;12.30;99.90;;;;;;4882348;29;20028;-86
2022/04/25 03:36:00;;;;;;;15.00;1.90;;;12.40;99.90;;;;;;4882102;29;20033;-88
2022/04/25 03:38:27;;;;;;;12.98;2.55;;;12.50;99.90;;;;;;4881989;29;20025;-87
2022/04/25 03:40:54;;;;;;;12.55;2.28;;;12.60;99.90;;;;;;4882220;29;20040;-88
2022/04/25 03:43:23;;;;;;;12.82;2.35;;;12.50;99.90;;;;;;4882272;29;20087;-88
2022/04/25 03:45:51;;;;;;;10.60;1.70;;;12.40;99.90;;;;;;4882886;29;20033;-92
2022/04/25 03:48:18;;;;;;;17.27;3.05;;;12.20;99.90;;;;;;4886805;29;20123;-92
2022/04/25 03:50:45;;;;;;;11.38;2.28;;;12.30;99.90;;;;;;4885691;29;20040;-92
2022/04/25 03:53:13;;;;;;;10.15;2.15;;;12.30;99.90;;;;;;4884227;29;20041;-92
2022/04/25 03:58:27;;;;;;;7.57;1.90;;;12.20;99.90;;;;;;4885428;29;20095;-90
2022/04/25 04:00:54;;;;;;;15.25;2.40;;;12.30;99.90;;;;;;4888297;29;20032;-90
2022/04/25 04:03:21;;;;;;;12.13;2.45;;;12.40;99.90;;;;;;4885630;29;20028;-89
2022/04/25 04:05:53;;;;;;;6.70;1.90;;;12.30;99.90;;;;;;4886506;29;20033;-91
2022/04/25 04:08:20;;;;;;;10.95;2.00;;;12.30;99.90;;;;;;4888624;29;20047;-88
2022/04/25 04:10:47;;;;;;;10.57;2.30;;;12.20;99.90;;;;;;4888517;29;20028;-89
2022/04/25 04:13:15;;;;;;;9.75;2.22;;;12.20;99.90;;;;;;4888298;29;20044;-86
2022/04/25 04:15:42;;;;;;;11.98;2.53;;;12.00;99.90;;;;;;4888128;29;20051;-86
2022/04/25 04:18:09;;;;;;;6.90;2.00;;;12.00;99.90;;;;;;4919378;29;20041;-85
2022/04/25 04:20:36;;;;;;;10.90;2.38;;;12.10;99.90;;;;;;4887917;29;20083;-86
2022/04/25 04:23:03;;;;;;;6.65;2.13;;;12.20;99.90;;;;;;4888014;29;20485;-86
2022/04/25 04:25:32;;;;;;;14.63;2.10;;;12.30;99.90;;;;;;4887941;29;20087;-84
2022/04/25 04:28:08;;;;;;;8.20;2.08;;;12.30;99.90;;;;;;4887836;29;20035;-85
2022/04/25 04:30:35;;;;;;;10.48;2.38;;;12.40;99.90;;;;;;4919026;29;20036;-85
2022/04/25 04:33:02;;;;;;;10.63;2.55;;;12.30;99.90;;;;;;4887754;29;20036;-85
2022/04/25 04:38:14;;;;;;;10.93;2.60;;;12.30;99.90;;;;;;4903395;29;20086;-86
2022/04/25 04:40:40;;;;;;;7.90;2.35;;;12.40;99.90;;;;;;4887767;29;20024;-86
2022/04/25 04:43:07;;;;;;;10.00;2.60;;;12.50;99.90;;;;;;4919026;29;20088;-86
2022/04/25 04:45:34;;;;;;;11.40;2.10;;;12.50;99.90;;;;;;4887684;29;20028;-86
2022/04/25 04:48:00;;;;;;;9.45;2.75;;;12.60;99.90;;;;;;4887612;29;20102;-86
2022/04/25 04:50:27;;;;;;;10.77;2.55;;;12.60;99.90;;;;;;4887658;29;20032;-84
2022/04/25 04:52:59;;;;;;;11.43;2.55;;;12.70;99.90;;;;;;4918915;29;20046;-87
2022/04/25 04:55:26;;;;;;;10.43;2.33;;;12.70;99.90;;;;;;4887377;29;20024;-85
2022/04/25 04:57:55;;;;;;;10.65;2.33;;;12.80;99.90;;;;;;4887269;29;20028;-87
2022/04/25 05:00:23;;;;;;;6.80;2.00;;;12.80;99.90;;;;;;4918904;29;20032;-88
2022/04/25 05:02:50;;;;;;;6.43;2.40;;;12.90;99.90;;;;;;4887715;29;20028;-87
2022/04/25 05:05:21;;;;;;;11.30;2.45;;;12.90;99.90;;;;;;4887572;29;20482;-88
2022/04/25 05:07:50;;;;;;;15.55;3.72;;;13.10;99.90;;;;;;4917807;29;20138;-84
2022/04/25 05:10:17;;;;;;;7.63;1.83;;;13.20;99.90;;;;;;4886983;29;20040;-84
2022/04/25 05:12:49;;;;;;;11.73;1.83;;;13.30;99.90;;;;;;4886854;29;20071;-84
2022/04/25 05:15:20;;;;;;;10.90;2.38;;;13.40;99.90;;;;;;4886839;29;20039;-84
2022/04/25 05:17:48;;;;;;;7.82;2.63;;;13.40;99.90;;;;;;4886818;29;20036;-86
2022/04/25 05:20:16;;;;;;;10.60;1.95;;;13.50;99.90;;;;;;4887331;29;20031;-90
2022/04/25 05:22:47;;;;;;;12.18;2.17;;;13.70;99.90;;;;;;4887338;29;20028;-90
2022/04/25 05:25:17;;;;;;;8.63;2.05;;;13.90;99.90;;;;;;4887157;29;20035;-90
2022/04/25 05:27:55;;;;;;;11.13;2.20;;;13.90;99.90;;;;;;4887206;29;20024;-90
2022/04/25 05:30:26;;;;;;;10.23;1.70;;;14.20;99.90;;;;;;4887154;29;20076;-90
2022/04/25 05:32:57;;;;;;;14.75;1.83;;;14.20;99.90;;;;;;4886994;29;20040;-89
2022/04/25 05:35:27;;;;;;;15.00;1.98;;;14.40;99.90;;;;;;4886848;29;20032;-89
2022/04/25 05:37:57;;;;;;;9.32;1.63;;;14.50;99.90;;;;;;4886862;29;20549;-90
2022/04/25 05:40:28;;;;;;;11.75;3.17;;;14.60;99.90;;;;;;4887038;29;20059;-89
2022/04/25 05:42:57;;;;;;;20.55;3.97;;;14.60;99.90;;;;;;4887032;29;20031;-90
2022/04/25 05:45:25;;;;;;;12.20;3.60;;;14.90;99.90;;;;;;4886704;29;20032;-90
2022/04/25 05:47:57;;;;;;;11.65;3.50;;;15.00;99.90;;;;;;4886769;29;20028;-90
2022/04/25 05:53:12;;;;;;;20.73;4.28;;;15.40;99.90;;;;;;4902240;29;20494;-90
2022/04/25 05:55:39;;;;;;;15.88;3.70;;;15.70;99.90;;;;;;4886526;29;20056;-90
2022/04/25 05:58:12;;;;;;;9.73;2.67;;;16.10;99.90;;;;;;4886743;29;20036;-90
2022/04/25 06:00:38;;;;;;;8.13;1.60;;;16.30;99.90;;;;;;4917877;29;20033;-89
2022/04/25 06:03:05;;;;;;;13.82;2.53;;;16.40;99.90;;;;;;4886239;29;20024;-91
2022/04/25 06:05:32;;;;;;;9.75;2.30;;;16.50;99.90;;;;;;4886495;29;20123;-90
2022/04/25 06:07:58;;;;;;;16.55;2.05;;;16.60;99.90;;;;;;4883135;29;20149;-91
2022/04/25 06:10:25;;;;;;;12.23;1.65;;;16.90;99.90;;;;;;4867738;29;20092;-91
2022/04/25 06:12:54;;;;;;;11.43;2.05;;;17.10;99.90;;;;;;4867560;29;20036;-90
2022/04/25 06:15:24;;;;;;;9.52;1.80;;;17.50;99.90;;;;;;4867776;29;20170;-90
2022/04/25 06:17:54;;;;;;;11.95;2.15;;;17.50;99.90;;;;;;4898611;29;20028;-90
2022/04/25 06:20:24;;;;;;;14.75;3.05;;;17.60;99.90;;;;;;4882528;29;20120;-91
2022/04/25 06:23:02;;;;;;;12.00;3.22;;;17.40;99.90;;;;;;4882827;29;20619;-91
2022/04/25 06:25:30;;;;;;;11.55;2.90;;;17.70;99.90;;;;;;4883081;29;20048;-90
2022/04/25 06:28:01;;;;;;;14.25;3.05;;;17.40;99.90;;;;;;4882933;29;20032;-91
2022/04/25 06:30:29;;;;;;;16.90;2.97;;;17.50;99.90;;;;;;4883016;29;20040;-90
2022/04/25 06:33:02;;;;;;;12.38;2.95;;;18.30;99.90;;;;;;4882279;29;20513;-85
2022/04/25 06:35:29;;;;;;;11.55;2.42;;;18.60;99.90;;;;;;4881744;29;20141;-86
2022/04/25 06:37:58;;;;;;;12.90;2.10;;;18.60;99.90;;;;;;4882226;29;20229;-89
2022/04/25 06:40:25;;;;;;;12.05;2.63;;;19.00;99.90;;;;;;4882131;29;20028;-86
2022/04/25 06:42:52;;;;;;;12.40;2.60;;;19.40;99.90;;;;;;4882230;29;20025;-85
2022/04/25 06:45:20;;;;;;;7.78;1.98;;;20.10;99.90;;;;;;4882185;29;20048;-85
2022/04/25 06:47:46;;;;;;;9.13;1.85;;;19.90;99.90;;;;;;4881797;29;20040;-87
2022/04/25 06:50:13;;;;;;;8.60;1.70;;;19.40;99.90;;;;;;4882226;29;20032;-86
2022/04/25 06:52:41;;;;;;;5.22;1.33;;;19.80;99.90;;;;;;4898258;29;20047;-86
2022/04/25 06:55:08;;;;;;;8.55;1.70;;;19.90;99.90;;;;;;4913119;29;20419;-86
2022/04/25 06:57:35;;;;;;;8.95;1.60;;;20.20;99.90;;;;;;4881875;29;20039;-84
2022/04/25 07:00:04;;;;;;;6.97;1.60;;;21.00;99.90;;;;;;4898802;29;20035;-85
2022/04/25 07:02:30;;;;;;;6.05;1.23;;;21.20;99.90;;;;;;4881567;29;20056;-85
2022/04/25 07:04:57;;;;;;;6.45;1.15;;;21.10;99.90;;;;;;4882152;29;20055;-87
2022/04/25 07:07:25;;;;;;;5.22;1.20;;;21.80;99.90;;;;;;4881811;29;20506;-86
2022/04/25 07:09:52;;;;;;;7.85;0.90;;;22.30;99.90;;;;;;4881790;29;20033;-88
2022/04/25 07:12:18;;;;;;;5.95;0.95;;;22.90;99.90;;;;;;4882175;29;20080;-88
2022/04/25 07:14:45;;;;;;;7.45;0.90;;;24.20;99.90;;;;;;4882352;29;20036;-91
2022/04/25 07:17:16;;;;;;;3.72;0.90;;;24.40;99.90;;;;;;4882447;29;20028;-87
2022/04/25 07:19:43;;;;;;;3.30;0.70;;;24.00;99.90;;;;;;4882596;29;20029;-91
2022/04/25 07:30:27;;;;;;;4.55;1.00;;;24.50;99.90;;;;;;4898822;29;20509;-86
2022/04/25 07:32:55;;;;;;;4.40;1.00;;;24.70;99.90;;;;;;4901211;29;20037;-87
2022/04/25 07:35:22;;;;;;;4.00;0.93;;;25.60;99.90;;;;;;4885546;29;20397;-91
2022/04/25 07:37:51;;;;;;;8.52;1.38;;;26.20;99.90;;;;;;4890104;29;20037;-87
2022/04/25 07:40:17;;;;;;;4.53;0.75;;;25.90;99.90;;;;;;4886167;29;20028;-87
2022/04/25 07:42:44;;;;;;;4.85;0.88;;;26.10;99.90;;;;;;4885764;29;20043;-89
2022/04/25 07:45:11;;;;;;;4.38;0.80;;;26.00;99.90;;;;;;4885613;29;20084;-88
2022/04/25 07:47:42;;;;;;;4.35;1.10;;;25.50;99.90;;;;;;4885297;29;20025;-85
2022/04/25 07:50:11;;;;;;;4.53;0.98;;;26.10;99.90;;;;;;4884980;29;20509;-87
2022/04/25 07:52:38;;;;;;;6.50;0.70;;;26.00;99.90;;;;;;4885008;29;20052;-87
2022/04/25 07:55:07;;;;;;;5.05;1.00;;;26.60;99.90;;;;;;4885304;29;20033;-84
2022/04/25 07:57:35;;;;;;;2.75;0.63;;;26.80;99.90;;;;;;4901609;29;20051;-86
2022/04/25 08:00:04;;;;;;;2.20;0.55;;;27.30;99.90;;;;;;4884839;29;20479;-86
2022/04/25 08:02:33;;;;;;;4.82;0.98;;;26.20;99.90;;;;;;4885978;29;20032;-86
2022/04/25 08:05:02;;;;;;;2.00;0.50;;;26.80;99.90;;;;;;4901977;29;20029;-92
2022/04/25 08:07:36;;;;;;;2.58;0.88;;;26.10;99.90;;;;;;4887035;29;20142;-91
2022/04/25 08:10:05;;;;;;;6.63;0.93;;;26.30;99.90;;;;;;4900738;29;20033;-91
2022/04/25 08:18:06;;;;;;;2.97;1.00;;;26.60;99.90;;;;;;4900617;29;20040;-88
2022/04/25 08:20:37;;;;;;;2.50;0.80;;;26.70;99.90;;;;;;4885048;29;20043;-88
2022/04/25 08:23:12;;;;;;;5.68;1.65;;;26.60;99.90;;;;;;4884901;29;20035;-87
2022/04/25 08:25:40;;;;;;;11.05;1.20;;;26.00;99.90;;;;;;4885363;29;20029;-91
2022/04/25 08:28:08;;;;;;;2.65;0.80;;;25.50;99.90;;;;;;4890543;29;20025;-89
2022/04/25 08:30:35;;;;;;;2.63;0.63;;;25.60;99.90;;;;;;4885679;29;20028;-89
2022/04/25 08:33:02;;;;;;;5.35;0.93;;;25.90;99.90;;;;;;4885158;29;20048;-90
2022/04/25 08:35:29;;;;;;;1.95;0.82;;;26.00;99.90;;;;;;4916099;29;20040;-90
2022/04/25 08:37:58;;;;;;;1.95;0.82;;;25.90;99.90;;;;;;4884739;29;20040;-91
2022/04/25 08:40:26;;;;;;;4.60;0.90;;;26.00;99.50;;;;;;4885239;29;20040;-91
2022/04/25 08:42:55;;;;;;;5.07;1.00;;;25.90;99.90;;;;;;4883865;29;20483;-88
2022/04/25 08:45:23;;;;;;;4.68;0.77;;;25.40;99.80;;;;;;4885212;29;20032;-91
2022/04/25 08:47:55;;;;;;;5.30;0.80;;;25.00;99.90;;;;;;4884355;29;20463;-89
2022/04/25 08:50:22;;;;;;;6.20;0.60;;;24.60;99.70;;;;;;4884702;29;20031;-88
2022/04/25 08:52:50;;;;;;;4.35;0.52;;;24.50;99.40;;;;;;4884381;29;20459;-89
2022/04/25 08:55:16;;;;;;;1.50;0.52;;;24.70;98.60;;;;;;4871755;29;20037;-87
2022/04/25 08:57:45;;;;;;;2.20;0.55;;;24.80;98.00;;;;;;4889403;29;20119;-90
2022/04/25 09:00:12;;;;;;;3.38;0.93;;;25.20;98.00;;;;;;4881273;29;20464;-87
2022/04/25 09:02:39;;;;;;;2.53;0.50;;;26.00;97.30;;;;;;4865694;29;20036;-93
2022/04/25 09:05:09;;;;;;;3.70;0.60;;;26.20;97.10;;;;;;4865832;29;20048;-91
2022/04/25 09:07:37;;;;;;;4.40;0.85;;;26.10;96.90;;;;;;4865542;29;20419;-88
2022/04/25 09:10:10;;;;;;;5.25;0.63;;;26.20;97.30;;;;;;4881201;29;20069;-89
2022/04/25 09:12:47;;;;;;;4.25;0.85;;;26.40;97.40;;;;;;4880910;29;20131;-88
2022/04/25 09:15:22;;;;;;;6.38;0.70;;;26.00;97.10;;;;;;4865539;29;20033;-87
2022/04/25 09:17:49;;;;;;;2.80;0.70;;;25.60;97.10;;;;;;4865637;29;20073;-89
2022/04/25 09:20:18;;;;;;;4.22;0.77;;;25.30;97.70;;;;;;4873053;29;20053;-89
2022/04/25 09:22:45;;;;;;;10.93;1.00;;;24.90;99.20;;;;;;4870812;29;20035;-90
2022/04/25 09:25:17;;;;;;;6.40;0.95;;;24.70;99.30;;;;;;4865699;29;20021;-88
2022/04/25 09:27:46;;;;;;;5.43;0.70;;;24.40;99.90;;;;;;4865670;29;20518;-91
2022/04/25 09:30:20;;;;;;;2.35;0.85;;;24.20;99.90;;;;;;4865401;29;20399;-89
2022/04/25 09:32:52;;;;;;;5.05;0.85;;;24.10;99.90;;;;;;4866203;29;20490;-90
2022/04/25 09:35:30;;;;;;;4.65;1.08;;;23.50;99.90;;;;;;4865229;29;20062;-91
2022/04/25 09:37:58;;;;;;;3.17;0.90;;;23.10;99.90;;;;;;4865540;29;20406;-89
2022/04/25 09:40:30;;;;;;;2.10;0.60;;;23.10;99.90;;;;;;4865514;29;20476;-91
2022/04/25 09:43:11;;;;;;;1.25;0.50;;;23.20;99.90;;;;;;4865290;29;20092;-87
2022/04/25 09:45:44;;;;;;;3.03;0.75;;;23.20;99.90;;;;;;4865168;29;20513;-91
2022/04/25 09:48:16;;;;;;;2.63;0.85;;;23.00;99.90;;;;;;4865572;29;20025;-92
2022/04/25 09:50:46;;;;;;;3.25;0.68;;;22.90;99.90;;;;;;4865457;29;20116;-88
2022/04/25 09:53:13;;;;;;;3.45;0.80;;;22.80;99.90;;;;;;4865297;29;20032;-88
2022/04/25 09:55:40;;;;;;;3.22;0.95;;;22.90;99.90;;;;;;4864793;29;20116;-85
2022/04/25 09:58:19;;;;;;;1.65;0.60;;;22.90;99.90;;;;;;4864873;29;20049;-87
2022/04/25 10:00:47;;;;;;;2.22;0.60;;;23.00;99.90;;;;;;4864126;29;20619;-86
2022/04/25 10:03:17;;;;;;;7.45;1.42;;;23.00;99.90;;;;;;4864489;29;20030;-91
2022/04/25 10:05:48;;;;;;;1.45;0.70;;;23.10;99.90;;;;;;4864589;29;20037;-87
2022/04/25 10:08:17;;;;;;;13.18;0.80;;;23.20;99.90;;;;;;4864616;29;20047;-88
2022/04/25 10:10:47;;;;;;;4.95;0.60;;;23.20;99.90;;;;;;4849158;29;20037;-89
2022/04/25 10:13:16;;;;;;;2.90;1.20;;;23.20;99.90;;;;;;4864486;29;20044;-86
2022/04/25 10:15:45;;;;;;;3.13;1.00;;;23.10;99.90;;;;;;4864502;29;20055;-89
2022/04/25 10:18:12;;;;;;;5.13;1.10;;;23.00;99.90;;;;;;4864504;29;20033;-89
2022/04/25 10:20:46;;;;;;;6.55;1.10;;;22.80;99.90;;;;;;4864482;29;20479;-87
2022/04/25 10:23:15;;;;;;;5.45;0.77;;;22.70;99.90;;;;;;4864345;29;20470;-88
2022/04/25 10:25:49;;;;;;;2.70;0.70;;;22.80;99.90;;;;;;4849060;29;20030;-88
2022/04/25 10:28:25;;;;;;;3.80;0.65;;;22.70;99.90;;;;;;4864289;29;20029;-88
2022/04/25 10:30:57;;;;;;;2.97;0.75;;;22.70;99.90;;;;;;4864353;29;20033;-87
2022/04/25 10:33:24;;;;;;;2.65;0.70;;;22.60;99.90;;;;;;4864321;29;20440;-92
2022/04/25 10:35:52;;;;;;;1.35;0.50;;;22.60;99.90;;;;;;4879598;29;20058;-87
2022/04/25 10:44:19;;;;;;;6.78;0.70;;;22.60;99.90;;;;;;4864342;29;20044;-90
2022/04/25 10:47:04;;;;;;;3.58;0.70;;;22.80;99.90;;;;;;4848836;29;20029;-91
2022/04/25 10:49:34;;;;;;;2.95;0.63;;;22.90;99.90;;;;;;4865126;29;20074;-90
2022/04/25 10:52:02;;;;;;;3.08;0.80;;;22.90;99.90;;;;;;4848557;29;20075;-88
2022/04/25 10:54:47;;;;;;;6.85;1.60;;;22.90;99.90;;;;;;4864153;29;20040;-89
2022/04/25 10:57:15;;;;;;;4.70;1.20;;;22.90;99.90;;;;;;4864053;29;20029;-89
2022/04/25 10:59:42;;;;;;;6.15;1.15;;;23.00;99.90;;;;;;4864248;29;20407;-88
2022/04/25 11:02:26;;;;;;;3.97;1.15;;;22.90;99.90;;;;;;4880347;29;20017;-92
2022/04/25 11:05:10;;;;;;;;;;;22.90;99.90;;;;;;4869345;29;20041;-93
2022/04/25 11:07:40;;;;;;;8.27;1.63;;;22.90;99.90;;;;;;4878372;29;19919;-93
2022/04/25 11:10:43;;;;;;;4.45;1.52;;;22.90;99.90;;;;;;4869621;29;20048;-94
2022/04/25 11:13:12;;;;;;;3.47;1.33;;;22.90;99.90;;;;;;4886447;29;20041;-91
2022/04/25 11:15:43;;;;;;;4.07;1.40;;;22.80;99.90;;;;;;4887971;29;20444;-92
2022/04/25 11:18:35;;;;;;;3.60;1.13;;;22.70;99.90;;;;;;4897946;29;20025;-93
2022/04/25 11:21:17;;;;;;;4.97;1.83;;;22.60;99.90;;;;;;4884981;29;20393;-92
2022/04/25 11:23:44;;;;;;;5.97;1.88;;;22.60;99.90;;;;;;4882845;29;20402;-93
2022/04/25 11:26:33;;;;;;;3.22;1.40;;;22.50;99.90;;;;;;4867288;29;20501;-91
2022/04/25 11:29:07;;;;;;;5.30;1.05;;;22.50;99.90;;;;;;4882836;29;20096;-91
2022/04/25 11:31:38;;;;;;;7.90;1.42;;;22.30;99.90;;;;;;4882037;29;20092;-92
2022/04/25 11:34:13;;;;;;;7.75;1.33;;;22.30;99.90;;;;;;4882518;29;20040;-92
2022/04/25 11:36:46;;;;;;;4.40;1.30;;;22.20;99.90;;;;;;4882349;29;20052;-92
2022/04/25 11:42:06;;;;;;;3.72;0.90;;;22.50;99.90;;;;;;4883203;29;20040;-92
